General Aviation Weather

Text Reports

Enter one or more of the following location identifiers separated by a space:

Zip Code, Four-Character ICAO or Three-Character IATA airport codes.

METAR - Aviation Routine Weather Report
KO54 - Weaverville, California
Updated at 11:35 AM GMT on July 22, 2014 (4:35 AM PDT):
METAR KO54 221135Z AUTO 00000KT 10SM CLR 15/13 A3006 RMK AO1
TAF - Terminal Area Forecast
KO54 - Weaverville, California
Updated at 11:35 AM GMT on July 22, 2014 (4:35 AM PDT):
No TAF is currently available for this location.
Decoded:
No decoded TAF is available.
PIREP - Pilot Weather Report
KO54 - Weaverville, California
Updated at 11:35 AM GMT on July 22, 2014 (4:35 AM PDT):
No PIREP is currently available for this location.
AIRMET - Airmens Meteorological Information
KO54 - Weaverville, California
Updated at 11:35 AM GMT on July 22, 2014 (4:35 AM PDT):
No AIRMET is currently available for this location.
SIGMET - Significant Meteorological Information
KO54 - Weaverville, California
Updated at 11:35 AM GMT on July 22, 2014 (4:35 AM PDT):
No SIGMET is currently available for this location.
NOTAM - Notice to Airmen
KO54 - Weaverville, California
Updated at 11:35 AM GMT on July 22, 2014 (4:35 AM PDT):
No NOTAM is currently available for this location.
Forecast Area
KO54 - Weaverville, California
Updated at 11:35 AM GMT on July 22, 2014 (4:35 AM PDT):
No NOTAM is currently available for this location.
Aviation Weather Maps